sensor_id;sensor_type;location;lat;lon;timestamp;pressure;altitude;pressure_sealevel;temperature;humidity
75991;BME280;64673;52.276;10.560;2023-02-28T00:01:26;102320.63;;;-1.20;83.79
75991;BME280;64673;52.276;10.560;2023-02-28T00:03:51;102308.75;;;-0.98;81.99
75991;BME280;64673;52.276;10.560;2023-02-28T00:06:17;102318.50;;;-0.99;81.97
75991;BME280;64673;52.276;10.560;2023-02-28T00:08:42;102311.84;;;-1.03;81.96
75991;BME280;64673;52.276;10.560;2023-02-28T00:11:11;102313.16;;;-1.07;82.45
75991;BME280;64673;52.276;10.560;2023-02-28T00:13:39;102313.03;;;-1.15;83.07
75991;BME280;64673;52.276;10.560;2023-02-28T00:16:09;102306.91;;;-1.33;84.46
75991;BME280;64673;52.276;10.560;2023-02-28T00:18:36;102313.38;;;-1.45;83.37
75991;BME280;64673;52.276;10.560;2023-02-28T00:21:01;102314.47;;;-1.66;84.93
75991;BME280;64673;52.276;10.560;2023-02-28T00:23:27;102317.00;;;-1.74;86.03
75991;BME280;64673;52.276;10.560;2023-02-28T00:25:53;102306.66;;;-1.67;84.11
75991;BME280;64673;52.276;10.560;2023-02-28T00:28:19;102314.66;;;-1.50;84.53
75991;BME280;64673;52.276;10.560;2023-02-28T00:30:45;102312.09;;;-1.41;83.08
75991;BME280;64673;52.276;10.560;2023-02-28T00:33:11;102312.88;;;-1.59;84.32
75991;BME280;64673;52.276;10.560;2023-02-28T00:35:36;102313.13;;;-1.79;85.01
75991;BME280;64673;52.276;10.560;2023-02-28T00:38:02;102308.47;;;-1.95;85.95
75991;BME280;64673;52.276;10.560;2023-02-28T00:40:27;102307.34;;;-1.93;85.11
75991;BME280;64673;52.276;10.560;2023-02-28T00:42:53;102304.94;;;-1.86;85.70
75991;BME280;64673;52.276;10.560;2023-02-28T00:45:18;102307.59;;;-1.86;85.40
75991;BME280;64673;52.276;10.560;2023-02-28T00:47:44;102309.84;;;-1.91;85.56
75991;BME280;64673;52.276;10.560;2023-02-28T00:50:11;102306.19;;;-1.90;85.33
75991;BME280;64673;52.276;10.560;2023-02-28T00:52:36;102309.91;;;-1.73;85.37
75991;BME280;64673;52.276;10.560;2023-02-28T00:55:02;102308.34;;;-1.66;84.59
75991;BME280;64673;52.276;10.560;2023-02-28T00:57:27;102312.09;;;-1.69;83.56
75991;BME280;64673;52.276;10.560;2023-02-28T00:59:53;102304.47;;;-1.72;83.78
75991;BME280;64673;52.276;10.560;2023-02-28T01:02:22;102300.41;;;-1.94;84.90
75991;BME280;64673;52.276;10.560;2023-02-28T01:04:47;102310.13;;;-1.94;85.44
75991;BME280;64673;52.276;10.560;2023-02-28T01:07:13;102307.81;;;-1.70;85.58
75991;BME280;64673;52.276;10.560;2023-02-28T01:09:39;102306.94;;;-1.61;84.88
75991;BME280;64673;52.276;10.560;2023-02-28T01:12:06;102311.72;;;-1.74;84.54
75991;BME280;64673;52.276;10.560;2023-02-28T01:14:32;102305.44;;;-1.73;84.04
75991;BME280;64673;52.276;10.560;2023-02-28T01:16:57;102294.59;;;-1.79;84.83
75991;BME280;64673;52.276;10.560;2023-02-28T01:19:23;102300.03;;;-1.71;84.46
75991;BME280;64673;52.276;10.560;2023-02-28T01:21:48;102294.69;;;-1.62;85.51
75991;BME280;64673;52.276;10.560;2023-02-28T01:24:13;102296.44;;;-1.53;83.41
75991;BME280;64673;52.276;10.560;2023-02-28T01:26:39;102294.97;;;-1.65;84.97
75991;BME280;64673;52.276;10.560;2023-02-28T01:29:04;102304.34;;;-1.80;84.44
75991;BME280;64673;52.276;10.560;2023-02-28T01:31:29;102293.38;;;-1.85;86.01
75991;BME280;64673;52.276;10.560;2023-02-28T01:33:55;102293.16;;;-2.01;86.50
75991;BME280;64673;52.276;10.560;2023-02-28T01:36:23;102289.22;;;-1.88;85.85
75991;BME280;64673;52.276;10.560;2023-02-28T01:38:48;102289.97;;;-1.68;86.04
75991;BME280;64673;52.276;10.560;2023-02-28T01:41:17;102288.22;;;-1.50;83.96
75991;BME280;64673;52.276;10.560;2023-02-28T01:46:09;102278.72;;;-1.70;85.54
75991;BME280;64673;52.276;10.560;2023-02-28T01:48:38;102279.19;;;-1.84;87.20
75991;BME280;64673;52.276;10.560;2023-02-28T01:51:13;102273.81;;;-1.92;86.52
75991;BME280;64673;52.276;10.560;2023-02-28T01:53:46;102277.19;;;-1.72;86.43
75991;BME280;64673;52.276;10.560;2023-02-28T01:56:17;102282.81;;;-1.85;86.05
75991;BME280;64673;52.276;10.560;2023-02-28T01:58:50;102278.50;;;-1.59;84.39
75991;BME280;64673;52.276;10.560;2023-02-28T02:01:17;102278.03;;;-1.72;85.79
75991;BME280;64673;52.276;10.560;2023-02-28T02:03:48;102281.00;;;-1.85;86.38
75991;BME280;64673;52.276;10.560;2023-02-28T02:06:21;102273.31;;;-1.78;86.10
75991;BME280;64673;52.276;10.560;2023-02-28T02:08:47;102276.03;;;-1.60;83.79
75991;BME280;64673;52.276;10.560;2023-02-28T02:11:13;102277.72;;;-1.69;85.71
75991;BME280;64673;52.276;10.560;2023-02-28T02:27:20;102261.69;;;-1.40;82.99
75991;BME280;64673;52.276;10.560;2023-02-28T02:43:54;102266.78;;;-1.56;86.22
75991;BME280;64673;52.276;10.560;2023-02-28T02:46:25;102274.88;;;-1.58;86.91
75991;BME280;64673;52.276;10.560;2023-02-28T02:48:54;102282.25;;;-1.34;86.45
75991;BME280;64673;52.276;10.560;2023-02-28T02:51:22;102279.16;;;-1.29;85.98
75991;BME280;64673;52.276;10.560;2023-02-28T02:53:56;102271.72;;;-1.43;86.53
75991;BME280;64673;52.276;10.560;2023-02-28T02:56:26;102271.81;;;-1.35;85.78
75991;BME280;64673;52.276;10.560;2023-02-28T02:58:55;102287.25;;;-1.13;85.01
75991;BME280;64673;52.276;10.560;2023-02-28T03:01:25;102290.94;;;-1.41;87.05
75991;BME280;64673;52.276;10.560;2023-02-28T03:03:59;102287.00;;;-1.37;86.20
75991;BME280;64673;52.276;10.560;2023-02-28T03:06:26;102280.38;;;-1.24;85.90
75991;BME280;64673;52.276;10.560;2023-02-28T03:08:52;102289.91;;;-1.31;87.67
75991;BME280;64673;52.276;10.560;2023-02-28T03:11:18;102292.00;;;-1.34;87.63
75991;BME280;64673;52.276;10.560;2023-02-28T03:21:38;102291.88;;;-1.15;86.53
75991;BME280;64673;52.276;10.560;2023-02-28T03:26:54;102295.59;;;-1.08;85.59
75991;BME280;64673;52.276;10.560;2023-02-28T03:29:26;102295.81;;;-1.01;85.25
75991;BME280;64673;52.276;10.560;2023-02-28T03:31:59;102298.38;;;-0.92;84.42
75991;BME280;64673;52.276;10.560;2023-02-28T03:34:38;102298.66;;;-0.95;85.25
75991;BME280;64673;52.276;10.560;2023-02-28T03:37:09;102295.88;;;-1.11;84.95
75991;BME280;64673;52.276;10.560;2023-02-28T03:39:42;102288.94;;;-1.12;85.28
75991;BME280;64673;52.276;10.560;2023-02-28T03:42:18;102289.75;;;-1.29;86.17
75991;BME280;64673;52.276;10.560;2023-02-28T03:44:48;102292.31;;;-1.02;84.18
75991;BME280;64673;52.276;10.560;2023-02-28T03:47:25;102292.47;;;-1.03;84.98
75991;BME280;64673;52.276;10.560;2023-02-28T03:50:09;102298.38;;;-1.27;86.13
75991;BME280;64673;52.276;10.560;2023-02-28T03:52:40;102295.13;;;-1.03;85.19
75991;BME280;64673;52.276;10.560;2023-02-28T03:55:11;102296.13;;;-0.87;83.39
75991;BME280;64673;52.276;10.560;2023-02-28T04:00:10;102296.28;;;-0.88;84.04
75991;BME280;64673;52.276;10.560;2023-02-28T04:02:37;102292.03;;;-0.99;84.60
75991;BME280;64673;52.276;10.560;2023-02-28T04:05:02;102286.28;;;-1.12;85.60
75991;BME280;64673;52.276;10.560;2023-02-28T04:07:31;102296.28;;;-1.06;85.19
75991;BME280;64673;52.276;10.560;2023-02-28T04:09:57;102289.31;;;-1.07;85.01
75991;BME280;64673;52.276;10.560;2023-02-28T04:12:23;102298.47;;;-1.19;85.23
75991;BME280;64673;52.276;10.560;2023-02-28T04:14:48;102287.63;;;-1.26;85.85
75991;BME280;64673;52.276;10.560;2023-02-28T04:17:14;102289.22;;;-1.15;82.97
75991;BME280;64673;52.276;10.560;2023-02-28T04:19:39;102278.09;;;-1.01;82.43
75991;BME280;64673;52.276;10.560;2023-02-28T04:22:05;102294.28;;;-1.04;82.78
75991;BME280;64673;52.276;10.560;2023-02-28T04:24:30;102289.75;;;-0.94;82.74
75991;BME280;64673;52.276;10.560;2023-02-28T04:26:57;102286.03;;;-0.83;82.29
75991;BME280;64673;52.276;10.560;2023-02-28T04:29:31;102290.75;;;-0.77;82.90
75991;BME280;64673;52.276;10.560;2023-02-28T04:31:58;102293.31;;;-1.03;83.85
75991;BME280;64673;52.276;10.560;2023-02-28T04:34:27;102296.78;;;-1.20;84.31
75991;BME280;64673;52.276;10.560;2023-02-28T04:36:53;102300.03;;;-1.26;84.21
75991;BME280;64673;52.276;10.560;2023-02-28T04:39:20;102305.78;;;-1.13;83.38
75991;BME280;64673;52.276;10.560;2023-02-28T04:41:46;102305.22;;;-1.34;83.83
75991;BME280;64673;52.276;10.560;2023-02-28T04:44:12;102295.47;;;-1.34;82.30
75991;BME280;64673;52.276;10.560;2023-02-28T04:46:38;102297.69;;;-1.12;82.15
75991;BME280;64673;52.276;10.560;2023-02-28T04:49:03;102300.66;;;-0.97;82.50
75991;BME280;64673;52.276;10.560;2023-02-28T04:51:28;102297.03;;;-0.96;82.49
75991;BME280;64673;52.276;10.560;2023-02-28T04:53:54;102297.34;;;-0.99;80.93
75991;BME280;64673;52.276;10.560;2023-02-28T04:56:20;102303.13;;;-0.95;80.38
75991;BME280;64673;52.276;10.560;2023-02-28T04:58:46;102295.75;;;-1.09;80.94
75991;BME280;64673;52.276;10.560;2023-02-28T05:01:25;102301.66;;;-0.98;82.06
75991;BME280;64673;52.276;10.560;2023-02-28T05:03:53;102298.47;;;-1.01;81.49
75991;BME280;64673;52.276;10.560;2023-02-28T05:06:19;102294.00;;;-1.01;80.69
75991;BME280;64673;52.276;10.560;2023-02-28T05:08:45;102300.28;;;-1.02;80.55
75991;BME280;64673;52.276;10.560;2023-02-28T05:11:26;102296.50;;;-0.99;80.65
75991;BME280;64673;52.276;10.560;2023-02-28T05:13:52;102299.28;;;-1.01;81.14
75991;BME280;64673;52.276;10.560;2023-02-28T05:16:19;102300.97;;;-1.00;81.17
75991;BME280;64673;52.276;10.560;2023-02-28T05:18:45;102297.03;;;-0.96;81.49
75991;BME280;64673;52.276;10.560;2023-02-28T05:21:24;102301.19;;;-0.93;81.57
75991;BME280;64673;52.276;10.560;2023-02-28T05:23:50;102297.53;;;-0.92;81.34
75991;BME280;64673;52.276;10.560;2023-02-28T05:26:16;102293.69;;;-0.98;81.45
75991;BME280;64673;52.276;10.560;2023-02-28T05:28:41;102293.47;;;-0.87;80.06
75991;BME280;64673;52.276;10.560;2023-02-28T05:31:10;102302.47;;;-0.80;81.80
75991;BME280;64673;52.276;10.560;2023-02-28T05:33:35;102300.50;;;-1.13;82.53
75991;BME280;64673;52.276;10.560;2023-02-28T05:36:01;102295.50;;;-1.16;81.81
75991;BME280;64673;52.276;10.560;2023-02-28T05:38:26;102295.72;;;-0.92;80.87
75991;BME280;64673;52.276;10.560;2023-02-28T05:40:52;102303.91;;;-0.85;79.96
75991;BME280;64673;52.276;10.560;2023-02-28T05:43:18;102300.88;;;-0.90;80.58
75991;BME280;64673;52.276;10.560;2023-02-28T05:45:44;102301.09;;;-1.19;81.91
75991;BME280;64673;52.276;10.560;2023-02-28T05:48:09;102303.13;;;-1.13;80.86
75991;BME280;64673;52.276;10.560;2023-02-28T05:50:34;102301.56;;;-1.06;81.22
75991;BME280;64673;52.276;10.560;2023-02-28T05:53:00;102314.91;;;-1.43;82.50
75991;BME280;64673;52.276;10.560;2023-02-28T05:55:25;102310.44;;;-1.42;82.34
75991;BME280;64673;52.276;10.560;2023-02-28T05:57:51;102312.28;;;-1.25;82.07
75991;BME280;64673;52.276;10.560;2023-02-28T06:00:16;102315.91;;;-1.26;81.11
75991;BME280;64673;52.276;10.560;2023-02-28T06:02:43;102317.88;;;-1.56;82.86
75991;BME280;64673;52.276;10.560;2023-02-28T06:05:16;102315.69;;;-1.60;83.04
75991;BME280;64673;52.276;10.560;2023-02-28T06:07:42;102312.94;;;-1.41;81.22
75991;BME280;64673;52.276;10.560;2023-02-28T06:10:10;102327.09;;;-1.32;79.62
75991;BME280;64673;52.276;10.560;2023-02-28T06:12:36;102323.97;;;-1.45;80.73
75991;BME280;64673;52.276;10.560;2023-02-28T06:15:02;102322.50;;;-1.58;81.84
75991;BME280;64673;52.276;10.560;2023-02-28T06:17:27;102327.53;;;-1.64;82.44
75991;BME280;64673;52.276;10.560;2023-02-28T06:19:53;102329.66;;;-1.40;80.81
75991;BME280;64673;52.276;10.560;2023-02-28T06:22:18;102329.81;;;-1.24;80.08
75991;BME280;64673;52.276;10.560;2023-02-28T06:24:43;102334.53;;;-1.18;79.33
75991;BME280;64673;52.276;10.560;2023-02-28T06:27:09;102324.16;;;-1.29;80.40
75991;BME280;64673;52.276;10.560;2023-02-28T06:29:34;102335.66;;;-1.21;80.27
75991;BME280;64673;52.276;10.560;2023-02-28T06:32:00;102335.53;;;-1.47;81.72
75991;BME280;64673;52.276;10.560;2023-02-28T06:34:26;102330.78;;;-1.43;80.82
75991;BME280;64673;52.276;10.560;2023-02-28T06:36:52;102338.50;;;-1.32;80.90
75991;BME280;64673;52.276;10.560;2023-02-28T06:39:17;102340.41;;;-1.24;79.99
75991;BME280;64673;52.276;10.560;2023-02-28T06:41:43;102342.06;;;-1.41;81.07
75991;BME280;64673;52.276;10.560;2023-02-28T06:44:16;102349.66;;;-1.28;80.50
75991;BME280;64673;52.276;10.560;2023-02-28T06:46:43;102346.41;;;-1.50;81.52
75991;BME280;64673;52.276;10.560;2023-02-28T06:49:09;102349.94;;;-1.31;80.73
75991;BME280;64673;52.276;10.560;2023-02-28T06:51:36;102351.72;;;-1.50;82.40
75991;BME280;64673;52.276;10.560;2023-02-28T06:54:02;102366.78;;;-1.32;81.45
75991;BME280;64673;52.276;10.560;2023-02-28T06:56:28;102358.25;;;-1.26;81.23
75991;BME280;64673;52.276;10.560;2023-02-28T06:58:53;102353.22;;;-1.20;81.10
75991;BME280;64673;52.276;10.560;2023-02-28T07:01:19;102359.03;;;-1.16;80.64
75991;BME280;64673;52.276;10.560;2023-02-28T07:03:46;102358.22;;;-1.17;81.03
75991;BME280;64673;52.276;10.560;2023-02-28T07:06:11;102358.84;;;-1.32;81.65
75991;BME280;64673;52.276;10.560;2023-02-28T07:08:37;102363.31;;;-1.33;81.33
75991;BME280;64673;52.276;10.560;2023-02-28T07:11:03;102370.72;;;-1.09;80.92
75991;BME280;64673;52.276;10.560;2023-02-28T07:13:28;102369.81;;;-1.00;79.74
75991;BME280;64673;52.276;10.560;2023-02-28T07:15:58;102367.16;;;-1.00;79.38
75991;BME280;64673;52.276;10.560;2023-02-28T07:18:24;102368.75;;;-0.89;80.61
75991;BME280;64673;52.276;10.560;2023-02-28T07:20:50;102372.59;;;-0.84;80.91
75991;BME280;64673;52.276;10.560;2023-02-28T07:23:15;102375.59;;;-0.87;80.40
75991;BME280;64673;52.276;10.560;2023-02-28T07:25:41;102372.16;;;-0.97;79.45
75991;BME280;64673;52.276;10.560;2023-02-28T07:28:06;102370.19;;;-0.95;79.41
75991;BME280;64673;52.276;10.560;2023-02-28T07:30:31;102372.38;;;-0.73;78.86
75991;BME280;64673;52.276;10.560;2023-02-28T07:32:57;102375.88;;;-0.72;78.68
75991;BME280;64673;52.276;10.560;2023-02-28T07:35:22;102368.47;;;-0.68;78.47
75991;BME280;64673;52.276;10.560;2023-02-28T07:37:48;102381.78;;;-0.60;77.91
75991;BME280;64673;52.276;10.560;2023-02-28T07:40:14;102368.31;;;-0.67;78.67
75991;BME280;64673;52.276;10.560;2023-02-28T07:42:41;102377.69;;;-0.73;77.99
75991;BME280;64673;52.276;10.560;2023-02-28T07:45:07;102366.44;;;-0.75;77.25
75991;BME280;64673;52.276;10.560;2023-02-28T07:47:33;102375.03;;;-0.73;78.13
75991;BME280;64673;52.276;10.560;2023-02-28T07:49:59;102378.59;;;-0.82;78.58
75991;BME280;64673;52.276;10.560;2023-02-28T07:52:25;102378.16;;;-0.77;77.99
75991;BME280;64673;52.276;10.560;2023-02-28T07:54:50;102371.72;;;-0.57;76.79
75991;BME280;64673;52.276;10.560;2023-02-28T07:57:16;102383.91;;;-0.64;76.75
75991;BME280;64673;52.276;10.560;2023-02-28T07:59:42;102370.97;;;-0.67;77.40
75991;BME280;64673;52.276;10.560;2023-02-28T08:02:15;102374.38;;;-0.57;76.74
75991;BME280;64673;52.276;10.560;2023-02-28T08:04:41;102384.50;;;-0.52;76.30
75991;BME280;64673;52.276;10.560;2023-02-28T08:07:06;102373.59;;;-0.49;77.36
75991;BME280;64673;52.276;10.560;2023-02-28T08:09:32;102376.78;;;-0.46;76.16
75991;BME280;64673;52.276;10.560;2023-02-28T08:11:57;102378.31;;;-0.43;76.67
75991;BME280;64673;52.276;10.560;2023-02-28T08:14:23;102374.66;;;-0.42;76.42
75991;BME280;64673;52.276;10.560;2023-02-28T08:16:48;102378.66;;;-0.38;77.77
75991;BME280;64673;52.276;10.560;2023-02-28T08:19:13;102387.44;;;-0.38;76.29
75991;BME280;64673;52.276;10.560;2023-02-28T08:21:39;102380.88;;;-0.33;75.85
75991;BME280;64673;52.276;10.560;2023-02-28T08:24:05;102383.53;;;-0.33;76.62
75991;BME280;64673;52.276;10.560;2023-02-28T08:26:31;102381.03;;;-0.35;76.93
75991;BME280;64673;52.276;10.560;2023-02-28T08:28:56;102384.88;;;-0.29;76.39
75991;BME280;64673;52.276;10.560;2023-02-28T08:31:22;102380.53;;;-0.13;77.59
75991;BME280;64673;52.276;10.560;2023-02-28T08:33:48;102382.69;;;0.10;76.66
75991;BME280;64673;52.276;10.560;2023-02-28T08:36:18;102385.94;;;0.04;76.36
75991;BME280;64673;52.276;10.560;2023-02-28T08:38:44;102384.69;;;0.16;75.65
75991;BME280;64673;52.276;10.560;2023-02-28T08:41:12;102383.13;;;0.31;75.55
75991;BME280;64673;52.276;10.560;2023-02-28T08:43:39;102381.50;;;0.38;75.42
75991;BME280;64673;52.276;10.560;2023-02-28T08:46:05;102382.38;;;0.47;75.69
75991;BME280;64673;52.276;10.560;2023-02-28T08:48:33;102381.84;;;0.43;74.68
75991;BME280;64673;52.276;10.560;2023-02-28T08:51:08;102376.25;;;0.54;74.71
75991;BME280;64673;52.276;10.560;2023-02-28T08:53:35;102377.59;;;0.50;74.19
75991;BME280;64673;52.276;10.560;2023-02-28T08:56:09;102380.28;;;0.58;74.70
75991;BME280;64673;52.276;10.560;2023-02-28T08:58:34;102387.66;;;0.72;73.73
75991;BME280;64673;52.276;10.560;2023-02-28T09:01:00;102382.22;;;0.90;73.19
75991;BME280;64673;52.276;10.560;2023-02-28T09:03:26;102392.41;;;1.11;73.35
75991;BME280;64673;52.276;10.560;2023-02-28T09:05:59;102392.09;;;1.22;72.81
75991;BME280;64673;52.276;10.560;2023-02-28T09:08:27;102391.28;;;1.30;72.26
75991;BME280;64673;52.276;10.560;2023-02-28T09:10:52;102392.78;;;1.40;72.30
75991;BME280;64673;52.276;10.560;2023-02-28T09:13:19;102389.81;;;1.43;72.34
75991;BME280;64673;52.276;10.560;2023-02-28T09:15:45;102390.13;;;1.48;72.04
75991;BME280;64673;52.276;10.560;2023-02-28T09:18:10;102392.13;;;1.63;71.62
75991;BME280;64673;52.276;10.560;2023-02-28T09:20:40;102390.00;;;1.66;72.10
75991;BME280;64673;52.276;10.560;2023-02-28T09:23:07;102389.47;;;1.71;72.00
75991;BME280;64673;52.276;10.560;2023-02-28T09:25:33;102390.31;;;1.88;72.62
75991;BME280;64673;52.276;10.560;2023-02-28T09:27:59;102389.47;;;1.87;71.05
75991;BME280;64673;52.276;10.560;2023-02-28T09:30:25;102385.47;;;1.91;71.57
75991;BME280;64673;52.276;10.560;2023-02-28T09:32:50;102394.25;;;2.16;71.86
75991;BME280;64673;52.276;10.560;2023-02-28T09:35:18;102391.44;;;2.09;70.59
75991;BME280;64673;52.276;10.560;2023-02-28T09:37:44;102397.94;;;2.07;71.16
75991;BME280;64673;52.276;10.560;2023-02-28T09:40:10;102392.25;;;2.18;71.81
75991;BME280;64673;52.276;10.560;2023-02-28T09:42:37;102384.13;;;2.19;71.05
75991;BME280;64673;52.276;10.560;2023-02-28T09:45:10;102388.91;;;2.32;70.41
75991;BME280;64673;52.276;10.560;2023-02-28T09:47:43;102387.06;;;2.41;70.43
75991;BME280;64673;52.276;10.560;2023-02-28T09:50:28;102388.81;;;2.65;69.00
75991;BME280;64673;52.276;10.560;2023-02-28T09:52:55;102396.47;;;2.60;67.83
75991;BME280;64673;52.276;10.560;2023-02-28T09:55:32;102389.94;;;2.70;68.39
75991;BME280;64673;52.276;10.560;2023-02-28T09:58:00;102385.66;;;2.61;67.59
75991;BME280;64673;52.276;10.560;2023-02-28T10:00:40;102390.59;;;2.72;66.32
75991;BME280;64673;52.276;10.560;2023-02-28T10:05:56;102391.28;;;2.66;65.40
75991;BME280;64673;52.276;10.560;2023-02-28T10:09:02;102388.72;;;2.81;65.55
75991;BME280;64673;52.276;10.560;2023-02-28T10:11:29;102390.41;;;2.82;62.87
75991;BME280;64673;52.276;10.560;2023-02-28T10:13:57;102396.63;;;2.97;61.23
75991;BME280;64673;52.276;10.560;2023-02-28T10:19:06;102394.84;;;2.89;60.92
75991;BME280;64673;52.276;10.560;2023-02-28T10:21:38;102394.22;;;3.10;60.45
75991;BME280;64673;52.276;10.560;2023-02-28T10:24:29;102390.44;;;3.05;56.93
75991;BME280;64673;52.276;10.560;2023-02-28T10:26:59;102391.00;;;2.92;58.84
75991;BME280;64673;52.276;10.560;2023-02-28T10:29:27;102395.31;;;2.62;59.56
75991;BME280;64673;52.276;10.560;2023-02-28T10:31:53;102392.69;;;2.54;59.80
75991;BME280;64673;52.276;10.560;2023-02-28T10:34:18;102395.19;;;2.86;57.63
75991;BME280;64673;52.276;10.560;2023-02-28T10:36:44;102393.56;;;2.77;57.10
75991;BME280;64673;52.276;10.560;2023-02-28T10:39:39;102400.97;;;2.59;58.08
75991;BME280;64673;52.276;10.560;2023-02-28T10:42:25;102402.00;;;2.50;59.19
75991;BME280;64673;52.276;10.560;2023-02-28T10:45:13;102394.84;;;2.89;55.85
75991;BME280;64673;52.276;10.560;2023-02-28T10:47:52;102391.88;;;3.15;55.21
75991;BME280;64673;52.276;10.560;2023-02-28T10:51:00;102393.34;;;3.18;57.39
75991;BME280;64673;52.276;10.560;2023-02-28T10:53:33;102390.69;;;3.41;56.98
75991;BME280;64673;52.276;10.560;2023-02-28T10:58:40;102391.06;;;3.38;54.79
75991;BME280;64673;52.276;10.560;2023-02-28T11:01:13;102390.84;;;3.47;55.42
75991;BME280;64673;52.276;10.560;2023-02-28T11:03:39;102390.69;;;3.63;56.14
75991;BME280;64673;52.276;10.560;2023-02-28T11:06:07;102384.03;;;3.82;54.80
75991;BME280;64673;52.276;10.560;2023-02-28T11:08:44;102383.72;;;4.00;54.52
75991;BME280;64673;52.276;10.560;2023-02-28T11:11:10;102381.28;;;4.13;55.11
75991;BME280;64673;52.276;10.560;2023-02-28T11:13:36;102384.72;;;3.99;55.79
75991;BME280;64673;52.276;10.560;2023-02-28T11:16:07;102382.84;;;4.22;54.75
75991;BME280;64673;52.276;10.560;2023-02-28T11:21:03;102367.91;;;4.13;53.32
75991;BME280;64673;52.276;10.560;2023-02-28T11:23:30;102366.06;;;4.43;53.13
75991;BME280;64673;52.276;10.560;2023-02-28T11:26:00;102367.72;;;4.29;52.55
75991;BME280;64673;52.276;10.560;2023-02-28T11:28:29;102363.66;;;4.19;51.40
75991;BME280;64673;52.276;10.560;2023-02-28T11:31:19;102369.84;;;4.19;52.11
75991;BME280;64673;52.276;10.560;2023-02-28T11:33:53;102365.25;;;4.13;53.56
75991;BME280;64673;52.276;10.560;2023-02-28T11:36:24;102359.06;;;4.13;51.96
75991;BME280;64673;52.276;10.560;2023-02-28T11:38:50;102353.53;;;4.14;52.74
75991;BME280;64673;52.276;10.560;2023-02-28T11:41:38;102358.31;;;4.48;51.26
75991;BME280;64673;52.276;10.560;2023-02-28T11:44:11;102361.03;;;4.33;50.59
75991;BME280;64673;52.276;10.560;2023-02-28T11:46:48;102342.03;;;4.43;52.00
75991;BME280;64673;52.276;10.560;2023-02-28T11:57:46;102353.81;;;4.63;51.08
75991;BME280;64673;52.276;10.560;2023-02-28T12:06:43;102347.63;;;4.48;50.60
75991;BME280;64673;52.276;10.560;2023-02-28T12:17:47;102334.38;;;4.40;51.96
75991;BME280;64673;52.276;10.560;2023-02-28T12:20:38;102339.97;;;4.45;52.48
75991;BME280;64673;52.276;10.560;2023-02-28T12:24:26;102337.31;;;4.60;49.70
75991;BME280;64673;52.276;10.560;2023-02-28T12:26:37;102333.31;;;4.70;51.49
75991;BME280;64673;52.276;10.560;2023-02-28T12:32:09;102328.75;;;4.35;50.56
75991;BME280;64673;52.276;10.560;2023-02-28T12:34:41;102334.81;;;4.58;51.40
75991;BME280;64673;52.276;10.560;2023-02-28T12:37:14;102326.53;;;4.53;49.28
75991;BME280;64673;52.276;10.560;2023-02-28T12:39:45;102315.06;;;4.23;50.46
75991;BME280;64673;52.276;10.560;2023-02-28T12:42:19;102312.78;;;4.56;49.60
75991;BME280;64673;52.276;10.560;2023-02-28T12:44:55;102314.06;;;4.75;49.35
75991;BME280;64673;52.276;10.560;2023-02-28T12:47:21;102300.75;;;4.46;49.80
75991;BME280;64673;52.276;10.560;2023-02-28T12:49:59;102300.31;;;4.78;50.96
75991;BME280;64673;52.276;10.560;2023-02-28T13:03:51;102294.38;;;4.97;48.91
75991;BME280;64673;52.276;10.560;2023-02-28T13:06:59;102285.75;;;4.81;49.16
75991;BME280;64673;52.276;10.560;2023-02-28T13:09:29;102281.13;;;4.53;47.62
75991;BME280;64673;52.276;10.560;2023-02-28T13:11:55;102280.47;;;4.66;47.19
75991;BME280;64673;52.276;10.560;2023-02-28T13:19:25;102253.19;;;4.56;47.22
75991;BME280;64673;52.276;10.560;2023-02-28T13:21:51;102255.81;;;4.34;48.56
75991;BME280;64673;52.276;10.560;2023-02-28T13:29:35;102252.94;;;4.51;47.37
75991;BME280;64673;52.276;10.560;2023-02-28T13:39:50;102254.50;;;4.81;45.37
75991;BME280;64673;52.276;10.560;2023-02-28T13:50:23;102269.66;;;4.95;46.48
75991;BME280;64673;52.276;10.560;2023-02-28T13:58:48;102270.81;;;5.29;48.86
75991;BME280;64673;52.276;10.560;2023-02-28T14:06:26;102272.06;;;5.11;48.17
75991;BME280;64673;52.276;10.560;2023-02-28T14:08:54;102276.34;;;5.27;46.44
75991;BME280;64673;52.276;10.560;2023-02-28T14:11:33;102267.50;;;5.27;44.88
75991;BME280;64673;52.276;10.560;2023-02-28T14:14:00;102270.81;;;5.29;47.28
75991;BME280;64673;52.276;10.560;2023-02-28T14:16:28;102266.78;;;5.39;46.47
75991;BME280;64673;52.276;10.560;2023-02-28T14:19:15;102274.22;;;5.44;45.45
75991;BME280;64673;52.276;10.560;2023-02-28T14:35:22;102252.06;;;5.57;46.00
75991;BME280;64673;52.276;10.560;2023-02-28T14:37:54;102245.44;;;5.52;46.02
75991;BME280;64673;52.276;10.560;2023-02-28T14:40:40;102252.81;;;5.44;46.14
75991;BME280;64673;52.276;10.560;2023-02-28T14:43:19;102257.69;;;5.40;48.30
75991;BME280;64673;52.276;10.560;2023-02-28T14:45:49;102251.44;;;5.27;46.26
75991;BME280;64673;52.276;10.560;2023-02-28T14:48:15;102258.56;;;5.20;48.86
75991;BME280;64673;52.276;10.560;2023-02-28T14:50:49;102252.16;;;5.42;48.09
75991;BME280;64673;52.276;10.560;2023-02-28T14:53:17;102252.06;;;5.57;46.21
75991;BME280;64673;52.276;10.560;2023-02-28T14:55:45;102242.84;;;5.94;47.67
75991;BME280;64673;52.276;10.560;2023-02-28T14:58:24;102243.84;;;6.27;47.37
75991;BME280;64673;52.276;10.560;2023-02-28T15:00:52;102231.53;;;5.92;47.12
75991;BME280;64673;52.276;10.560;2023-02-28T15:05:55;102237.97;;;5.41;47.12
75991;BME280;64673;52.276;10.560;2023-02-28T15:08:22;102234.19;;;5.29;45.96
75991;BME280;64673;52.276;10.560;2023-02-28T15:13:19;102232.59;;;4.92;48.83
75991;BME280;64673;52.276;10.560;2023-02-28T15:15:46;102231.81;;;4.98;48.04
75991;BME280;64673;52.276;10.560;2023-02-28T15:20:59;102226.88;;;4.95;48.93
75991;BME280;64673;52.276;10.560;2023-02-28T15:23:26;102228.66;;;4.88;48.60